Time;durP1;ratioP1;P1;durP2;ratioP2;P2;SDS_P1;SDS_P2;PMS_P1;PMS_P2;Temp;Humidity;BMP_temperature;BMP_pressure;BME280_temperature;BME280_humidity;BME280_pressure;Samples;Min_cycle;Max_cycle;Signal;HPM_P1;HPM_P2
2023/08/05 00:02:08;;;;;;;6.50;5.50;;;;;;;27.06;43.29;100175.59;107589;1260;69332;-86
2023/08/05 00:04:33;;;;;;;5.80;4.80;;;;;;;27.06;43.19;100172.60;107442;1257;69154;-86
2023/08/05 00:06:59;;;;;;;6.20;5.30;;;;;;;27.05;42.93;100174.38;107383;1260;69196;-86
2023/08/05 00:09:24;;;;;;;5.70;5.20;;;;;;;27.05;42.89;100172.93;107411;1260;69135;-86
2023/08/05 00:11:50;;;;;;;5.80;5.30;;;;;;;27.04;43.02;100175.05;107488;1260;66624;-86
2023/08/05 00:14:15;;;;;;;5.40;5.00;;;;;;;27.04;43.04;100176.98;107352;1257;70144;-86
2023/08/05 00:16:41;;;;;;;5.50;5.00;;;;;;;27.04;42.91;100179.90;107486;1258;69251;-86
2023/08/05 00:19:06;;;;;;;5.30;4.80;;;;;;;27.03;43.13;100176.34;108521;1258;69097;-85
2023/08/05 00:21:32;;;;;;;6.20;5.00;;;;;;;27.03;43.10;100172.59;109585;1257;67443;-85
2023/08/05 00:23:57;;;;;;;5.50;5.00;;;;;;;27.03;42.91;100167.52;109164;1258;66735;-86
2023/08/05 00:26:23;;;;;;;6.20;4.90;;;;;;;27.04;43.08;100158.63;107301;1258;69290;-86
2023/08/05 00:28:48;;;;;;;7.00;4.70;;;;;;;27.04;43.10;100158.65;107257;1263;69276;-86
2023/08/05 00:31:14;;;;;;;7.40;5.10;;;;;;;27.03;42.97;100147.07;107421;1261;69283;-86
2023/08/05 00:33:39;;;;;;;5.80;5.30;;;;;;;27.03;42.93;100148.10;107486;1257;69175;-86
2023/08/05 00:36:05;;;;;;;5.10;4.60;;;;;;;27.03;42.86;100149.05;107388;1261;66562;-86
2023/08/05 00:38:38;;;;;;;5.60;5.00;;;;;;;27.03;43.06;100145.33;107389;1257;69241;-92
2023/08/05 00:41:04;;;;;;;5.70;4.80;;;;;;;27.01;42.83;100139.41;107374;1260;69222;-85
2023/08/05 00:43:30;;;;;;;5.30;4.80;;;;;;;27.01;43.02;100138.13;107418;1257;69219;-86
2023/08/05 00:45:56;;;;;;;5.70;4.90;;;;;;;27.00;42.93;100137.64;107416;1257;69111;-86
2023/08/05 00:48:22;;;;;;;5.70;5.20;;;;;;;27.00;42.90;100133.92;107367;1257;69120;-86
2023/08/05 00:50:47;;;;;;;5.50;4.90;;;;;;;26.99;43.02;100135.05;107416;1257;69282;-86
2023/08/05 00:53:14;;;;;;;5.30;4.80;;;;;;;26.99;43.04;100133.50;107039;1258;69206;-86
2023/08/05 00:55:40;;;;;;;5.70;5.10;;;;;;;26.98;43.10;100132.73;107422;1258;70262;-86
2023/08/05 00:58:05;;;;;;;5.30;4.80;;;;;;;26.98;43.39;100134.70;107383;1261;70202;-85
2023/08/05 01:00:31;;;;;;;7.10;5.10;;;;;;;26.98;43.12;100138.68;107503;1258;69733;-86
2023/08/05 01:02:57;;;;;;;7.10;5.80;;;;;;;26.98;43.20;100139.77;107408;1258;69668;-86
2023/08/05 01:05:31;;;;;;;5.70;5.10;;;;;;;26.98;43.34;100140.46;107417;1258;69153;-91
2023/08/05 01:07:56;;;;;;;5.20;4.70;;;;;;;26.97;43.32;100135.85;107360;1257;69226;-86
2023/08/05 01:10:22;;;;;;;6.60;5.10;;;;;;;26.97;43.41;100133.45;107147;1263;69276;-86
2023/08/05 01:12:47;;;;;;;5.80;5.20;;;;;;;26.97;43.41;100127.73;107380;1257;69199;-86
2023/08/05 01:15:13;;;;;;;5.50;4.90;;;;;;;26.97;43.32;100115.96;107501;1263;69248;-86
2023/08/05 01:17:38;;;;;;;5.10;4.60;;;;;;;26.96;43.57;100119.06;107484;1262;67958;-86
2023/08/05 01:20:04;;;;;;;6.90;5.20;;;;;;;26.96;43.64;100118.31;107483;1262;69178;-86
2023/08/05 01:22:37;;;;;;;5.70;5.10;;;;;;;26.96;43.52;100112.90;107210;1258;69118;-86
2023/08/05 01:25:28;;;;;;;6.00;5.40;;;;;;;26.96;43.70;100111.77;107416;1258;69220;-86
2023/08/05 01:27:54;;;;;;;5.90;4.90;;;;;;;26.95;43.76;100102.15;107399;1261;69130;-85
2023/08/05 01:30:22;;;;;;;7.20;4.90;;;;;;;26.95;43.79;100099.42;107216;1263;69126;-86
2023/08/05 01:32:48;;;;;;;6.50;5.30;;;;;;;26.95;43.86;100097.45;107561;1257;74268;-86
2023/08/05 01:37:53;;;;;;;6.90;5.60;;;;;;;26.94;43.96;100093.29;107223;1263;69251;-86
2023/08/05 01:40:19;;;;;;;5.70;5.00;;;;;;;26.94;44.19;100093.40;107244;1263;69352;-85
2023/08/05 01:42:44;;;;;;;6.20;5.30;;;;;;;26.93;44.32;100093.36;107208;1257;69235;-86
2023/08/05 01:45:10;;;;;;;6.30;5.40;;;;;;;26.94;44.44;100094.27;107309;1257;69145;-86
2023/08/05 01:47:35;;;;;;;6.60;5.30;;;;;;;26.93;44.40;100098.32;107244;1257;69225;-86
2023/08/05 01:50:01;;;;;;;5.40;4.90;;;;;;;26.94;44.57;100091.10;107221;1263;69273;-85
2023/08/05 01:52:26;;;;;;;6.20;5.20;;;;;;;26.93;44.71;100095.75;107303;1257;69172;-86
2023/08/05 01:54:52;;;;;;;5.50;5.00;;;;;;;26.93;44.60;100096.31;107396;1257;69280;-86
2023/08/05 01:57:17;;;;;;;5.50;5.00;;;;;;;26.93;44.79;100092.45;107364;1261;69251;-86
2023/08/05 01:59:43;;;;;;;6.20;5.40;;;;;;;26.93;44.95;100093.16;107266;1257;69261;-86
2023/08/05 02:04:48;;;;;;;6.80;5.60;;;;;;;26.92;45.15;100101.05;107480;1257;73405;-85
2023/08/05 02:07:14;;;;;;;6.90;6.00;;;;;;;26.92;45.30;100098.88;107430;1257;69269;-86
2023/08/05 02:09:39;;;;;;;7.90;5.60;;;;;;;26.91;45.41;100101.52;107388;1257;69286;-86
2023/08/05 02:12:05;;;;;;;6.40;5.80;;;;;;;26.91;45.54;100102.52;107339;1257;69223;-86
2023/08/05 02:14:31;;;;;;;7.50;6.00;;;;;;;26.91;45.57;100098.39;107425;1260;69241;-86
2023/08/05 02:16:56;;;;;;;7.30;6.20;;;;;;;26.91;45.94;100095.23;107389;1260;69764;-86
2023/08/05 02:19:21;;;;;;;9.30;5.90;;;;;;;26.91;45.85;100090.70;107343;1257;69609;-86
2023/08/05 02:21:47;;;;;;;6.50;5.90;;;;;;;26.91;46.24;100088.95;107193;1263;69308;-86
2023/08/05 02:24:12;;;;;;;7.40;6.70;;;;;;;26.90;46.11;100087.21;107411;1257;69292;-86
2023/08/05 02:26:38;;;;;;;6.60;6.00;;;;;;;26.90;46.51;100086.95;107421;1257;69860;-86
2023/08/05 02:29:03;;;;;;;7.00;6.30;;;;;;;26.90;46.59;100083.77;107450;1258;69292;-86
2023/08/05 02:31:29;;;;;;;7.10;6.30;;;;;;;26.90;46.77;100086.34;107441;1256;69216;-86
2023/08/05 02:33:54;;;;;;;7.70;6.90;;;;;;;26.90;46.87;100088.04;107315;1262;69093;-86
2023/08/05 02:36:20;;;;;;;8.20;7.40;;;;;;;26.90;46.91;100096.11;107459;1257;69155;-86
2023/08/05 02:38:45;;;;;;;7.80;6.90;;;;;;;26.90;47.14;100097.95;107418;1260;69334;-86
2023/08/05 02:41:11;;;;;;;8.30;7.40;;;;;;;26.89;47.20;100102.88;107556;1262;69152;-86
2023/08/05 02:43:36;;;;;;;10.70;7.20;;;;;;;26.89;47.42;100100.15;107243;1262;69226;-86
2023/08/05 02:46:02;;;;;;;8.80;7.90;;;;;;;26.88;47.53;100102.66;107439;1257;69155;-84
2023/08/05 02:48:27;;;;;;;9.10;7.60;;;;;;;26.88;47.80;100104.73;107413;1257;69765;-84
2023/08/05 02:50:53;;;;;;;9.50;7.80;;;;;;;26.88;47.93;100105.34;107455;1260;69202;-84
2023/08/05 02:53:19;;;;;;;8.30;7.50;;;;;;;26.88;47.94;100105.76;107424;1256;69225;-84
2023/08/05 02:55:44;;;;;;;8.40;7.40;;;;;;;26.87;48.12;100104.13;107275;1256;69225;-87
2023/08/05 02:58:10;;;;;;;11.60;8.20;;;;;;;26.88;48.30;100107.98;107417;1255;69292;-87
2023/08/05 03:00:36;;;;;;;9.50;8.50;;;;;;;26.87;48.67;100111.20;107417;1258;69088;-86
2023/08/05 03:03:01;;;;;;;9.80;8.40;;;;;;;26.87;48.69;100113.17;107261;1257;69314;-87
2023/08/05 03:05:27;;;;;;;9.60;8.50;;;;;;;26.86;48.71;100110.86;107157;1257;69210;-87
2023/08/05 03:10:32;;;;;;;9.20;8.30;;;;;;;26.86;48.95;100116.35;107394;1257;69765;-85
2023/08/05 03:12:58;;;;;;;9.00;8.10;;;;;;;26.86;49.07;100119.18;107340;1257;69155;-85
2023/08/05 03:15:28;;;;;;;9.50;8.60;;;;;;;26.86;49.14;100123.15;107434;1256;69244;-85
2023/08/05 03:17:53;;;;;;;11.10;9.00;;;;;;;26.85;49.26;100125.92;107339;1257;74252;-85
2023/08/05 03:20:23;;;;;;;9.10;8.20;;;;;;;26.85;49.50;100125.91;107503;1257;70300;-85
2023/08/05 03:25:23;;;;;;;10.30;9.30;;;;;;;26.85;49.41;100122.10;107548;1257;69027;-85
2023/08/05 03:27:49;;;;;;;9.40;8.40;;;;;;;26.85;49.70;100121.54;107457;1257;69138;-85
2023/08/05 03:30:15;;;;;;;9.60;8.70;;;;;;;26.85;49.67;100117.83;107424;1257;69172;-85
2023/08/05 03:32:40;;;;;;;9.50;8.50;;;;;;;26.85;49.84;100113.85;107158;1257;69168;-86
2023/08/05 03:35:06;;;;;;;10.20;8.60;;;;;;;26.84;49.79;100110.40;107351;1257;69689;-86
2023/08/05 03:37:32;;;;;;;10.70;9.20;;;;;;;26.85;49.98;100119.11;107170;1257;69583;-86
2023/08/05 03:39:57;;;;;;;9.70;8.70;;;;;;;26.85;50.15;100119.98;107406;1257;69144;-85
2023/08/05 03:42:23;;;;;;;9.60;8.50;;;;;;;26.84;50.18;100121.64;107468;1257;69341;-86
2023/08/05 03:44:48;;;;;;;10.50;8.30;;;;;;;26.84;50.30;100115.40;107457;1257;69353;-87
2023/08/05 03:47:15;;;;;;;9.50;8.50;;;;;;;26.85;50.25;100119.11;107318;1257;69079;-86
2023/08/05 03:49:40;;;;;;;9.20;8.40;;;;;;;26.84;50.43;100121.20;107314;1257;67306;-86
2023/08/05 03:52:06;;;;;;;9.70;8.80;;;;;;;26.84;50.59;100119.80;107366;1260;69219;-87
2023/08/05 03:54:32;;;;;;;9.60;8.70;;;;;;;26.85;50.43;100121.65;107129;1260;69088;-86
2023/08/05 03:56:59;;;;;;;9.70;8.60;;;;;;;26.85;50.53;100128.91;107242;1257;69229;-86
2023/08/05 03:59:25;;;;;;;9.80;8.80;;;;;;;26.85;50.52;100130.58;107408;1257;69152;-87
2023/08/05 04:01:54;;;;;;;9.70;8.70;;;;;;;26.85;50.49;100131.56;107544;1257;69067;-92
2023/08/05 04:04:19;;;;;;;9.80;7.90;;;;;;;26.84;50.60;100128.72;107114;1257;69127;-86
2023/08/05 04:06:45;;;;;;;8.70;7.90;;;;;;;26.84;50.45;100127.16;107444;1257;69283;-86
2023/08/05 04:09:12;;;;;;;9.40;8.50;;;;;;;26.84;50.67;100126.16;107333;1256;69193;-86
2023/08/05 04:11:38;;;;;;;9.20;8.30;;;;;;;26.84;50.76;100125.59;107415;1257;69214;-87
2023/08/05 04:14:04;;;;;;;9.60;8.60;;;;;;;26.84;50.63;100130.84;107352;1257;67559;-86
2023/08/05 04:16:30;;;;;;;9.90;7.90;;;;;;;26.84;50.50;100126.15;107285;1257;70210;-86
2023/08/05 04:18:55;;;;;;;9.30;8.50;;;;;;;26.84;50.58;100125.88;107429;1260;69302;-86
2023/08/05 04:21:25;;;;;;;9.00;8.10;;;;;;;26.85;50.60;100127.48;107218;1258;69120;-86
2023/08/05 04:23:50;;;;;;;9.50;8.40;;;;;;;26.84;50.56;100134.70;107425;1257;82922;-86
2023/08/05 04:26:16;;;;;;;9.10;8.20;;;;;;;26.84;50.69;100136.11;107436;1260;69325;-86
2023/08/05 04:28:49;;;;;;;9.40;8.40;;;;;;;26.84;50.70;100141.77;107261;1260;69248;-91
2023/08/05 04:31:15;;;;;;;9.00;8.10;;;;;;;26.84;50.64;100143.33;107388;1257;69325;-86
2023/08/05 04:33:40;;;;;;;8.80;8.00;;;;;;;26.84;50.76;100138.27;107510;1257;67260;-86
2023/08/05 04:36:06;;;;;;;8.90;8.10;;;;;;;26.85;50.79;100133.88;107474;1258;70377;-86
2023/08/05 04:38:31;;;;;;;8.30;7.50;;;;;;;26.85;50.61;100131.75;107443;1256;70191;-86
2023/08/05 04:40:57;;;;;;;8.20;7.40;;;;;;;26.85;50.69;100131.90;107450;1257;69298;-87
2023/08/05 04:43:23;;;;;;;8.40;7.50;;;;;;;26.85;50.54;100131.90;107393;1262;69086;-86
2023/08/05 04:45:50;;;;;;;8.30;7.50;;;;;;;26.86;50.68;100136.37;107605;1257;70747;-87
2023/08/05 04:48:17;;;;;;;8.60;7.80;;;;;;;26.85;50.84;100140.31;107314;1260;69187;-86
2023/08/05 04:50:42;;;;;;;9.40;7.20;;;;;;;26.85;50.80;100141.44;107520;1257;69146;-87
2023/08/05 04:53:08;;;;;;;8.40;7.10;;;;;;;26.86;50.67;100136.07;107644;1257;69235;-87
2023/08/05 04:55:42;;;;;;;7.30;6.60;;;;;;;26.86;50.78;100139.94;107511;1260;69305;-92
2023/08/05 04:58:08;;;;;;;7.90;7.10;;;;;;;26.85;50.75;100132.36;107408;1257;73244;-86
2023/08/05 05:00:34;;;;;;;8.40;7.70;;;;;;;26.86;50.66;100131.45;107534;1257;68212;-86
2023/08/05 05:02:59;;;;;;;7.80;7.10;;;;;;;26.87;50.40;100125.51;107300;1258;69118;-86
2023/08/05 05:05:25;;;;;;;8.20;7.40;;;;;;;26.87;50.63;100132.17;107455;1257;69260;-86
2023/08/05 05:07:50;;;;;;;8.50;7.30;;;;;;;26.87;50.49;100129.41;107461;1257;67542;-87
2023/08/05 05:10:17;;;;;;;8.30;7.50;;;;;;;26.87;50.66;100132.92;107367;1257;69776;-86
2023/08/05 05:12:42;;;;;;;7.50;6.80;;;;;;;26.87;50.83;100129.68;107498;1257;69248;-86
2023/08/05 05:15:08;;;;;;;7.80;7.10;;;;;;;26.87;50.45;100135.50;107516;1257;67073;-87
2023/08/05 05:17:37;;;;;;;7.30;6.60;;;;;;;26.88;50.62;100134.67;107528;1257;69161;-86
2023/08/05 05:20:06;;;;;;;7.90;7.20;;;;;;;26.88;50.58;100138.23;107519;1257;73700;-86
2023/08/05 05:22:36;;;;;;;7.80;7.10;;;;;;;26.88;50.53;100143.08;107422;1257;69266;-92
2023/08/05 05:25:01;;;;;;;7.90;7.20;;;;;;;26.88;50.56;100142.21;106982;1262;69238;-86
2023/08/05 05:27:27;;;;;;;7.80;6.70;;;;;;;26.88;50.82;100138.27;107360;1257;69363;-86
2023/08/05 05:29:53;;;;;;;8.30;6.40;;;;;;;26.88;50.70;100139.40;107536;1257;69277;-86
2023/08/05 05:32:18;;;;;;;9.00;6.50;;;;;;;26.88;50.78;100138.13;107497;1257;69299;-87
2023/08/05 05:34:44;;;;;;;7.80;6.50;;;;;;;26.88;50.62;100145.08;107400;1257;248493;-86
2023/08/05 05:37:09;;;;;;;8.30;7.10;;;;;;;26.88;50.77;100148.60;107549;1257;70494;-86
2023/08/05 05:39:35;;;;;;;7.70;6.70;;;;;;;26.88;50.74;100153.34;107309;1257;69328;-86
2023/08/05 05:42:00;;;;;;;7.60;6.70;;;;;;;26.89;50.68;100156.48;107451;1257;69209;-86
2023/08/05 05:44:29;;;;;;;7.10;6.40;;;;;;;26.89;50.73;100152.28;107394;1257;69227;-87
2023/08/05 05:46:55;;;;;;;7.10;6.50;;;;;;;26.89;50.47;100148.02;107521;1261;69145;-86
2023/08/05 05:49:36;;;;;;;7.00;6.40;;;;;;;26.90;50.46;100145.24;107531;1257;69210;-91
2023/08/05 05:52:03;;;;;;;6.40;5.90;;;;;;;26.90;50.44;100142.03;107462;1258;69236;-86
2023/08/05 05:54:28;;;;;;;7.30;6.60;;;;;;;26.91;50.58;100141.66;107627;1257;69206;-86
2023/08/05 05:56:54;;;;;;;7.20;6.40;;;;;;;26.91;50.46;100142.14;107507;1260;69143;-86
2023/08/05 05:59:19;;;;;;;7.10;6.40;;;;;;;26.92;50.45;100142.50;107709;1260;69343;-86
2023/08/05 06:01:44;;;;;;;7.40;6.70;;;;;;;26.93;50.38;100142.42;107931;1256;67396;-86
2023/08/05 06:04:10;;;;;;;6.60;6.00;;;;;;;26.93;50.50;100137.02;107702;1257;73296;-86
2023/08/05 06:06:35;;;;;;;6.90;6.20;;;;;;;26.94;50.29;100138.01;107796;1260;70366;-85
2023/08/05 06:09:03;;;;;;;7.20;6.50;;;;;;;26.95;50.30;100137.09;107948;1260;69334;-86
2023/08/05 06:11:32;;;;;;;6.40;5.90;;;;;;;26.95;50.24;100139.98;107893;1257;69292;-86
2023/08/05 06:13:57;;;;;;;6.50;5.90;;;;;;;26.95;50.35;100138.41;107864;1257;69072;-86
2023/08/05 06:16:23;;;;;;;6.60;6.00;;;;;;;26.96;50.49;100142.17;107452;1257;69295;-91
2023/08/05 06:18:49;;;;;;;7.10;6.50;;;;;;;26.96;50.41;100140.35;107553;1257;69168;-86
2023/08/05 06:21:14;;;;;;;6.80;6.20;;;;;;;26.97;50.40;100137.02;107686;1257;69495;-85
2023/08/05 06:23:40;;;;;;;6.20;5.70;;;;;;;26.98;50.34;100131.87;107648;1257;69260;-85
2023/08/05 06:26:05;;;;;;;6.40;5.80;;;;;;;26.98;50.23;100125.92;107710;1257;73554;-86
2023/08/05 06:28:31;;;;;;;6.80;6.20;;;;;;;26.99;50.22;100121.31;107580;1257;69376;-86
2023/08/05 06:30:56;;;;;;;6.30;5.80;;;;;;;27.00;50.33;100121.65;107474;1257;69750;-86
2023/08/05 06:33:22;;;;;;;6.70;6.10;;;;;;;27.00;50.22;100122.52;107344;1257;69378;-87
2023/08/05 06:35:47;;;;;;;6.40;5.80;;;;;;;27.01;50.29;100118.20;107569;1257;69168;-87
2023/08/05 06:38:13;;;;;;;6.80;6.10;;;;;;;27.01;50.05;100115.67;107557;1257;69266;-87
2023/08/05 06:40:41;;;;;;;6.50;5.90;;;;;;;27.01;50.00;100111.13;107281;1257;69213;-87
2023/08/05 06:45:47;;;;;;;6.90;5.80;;;;;;;27.02;50.02;100105.34;107394;1257;69177;-87
2023/08/05 06:48:13;;;;;;;6.20;5.70;;;;;;;27.03;50.14;100106.29;107475;1257;69222;-87
2023/08/05 06:50:38;;;;;;;6.10;5.50;;;;;;;27.03;50.04;100109.85;107397;1257;69183;-86
2023/08/05 06:53:04;;;;;;;7.00;5.40;;;;;;;27.03;50.04;100108.74;107341;1260;67130;-86
2023/08/05 06:55:29;;;;;;;6.70;5.90;;;;;;;27.04;49.94;100106.52;107422;1257;69392;-87
2023/08/05 06:57:55;;;;;;;7.50;6.10;;;;;;;27.04;49.85;100105.00;107220;1257;69142;-86
2023/08/05 07:00:20;;;;;;;6.30;5.70;;;;;;;27.05;49.97;100111.02;107351;1257;67229;-86
2023/08/05 07:02:46;;;;;;;6.30;5.70;;;;;;;27.05;50.07;100111.18;107313;1257;69181;-86
2023/08/05 07:05:11;;;;;;;5.60;5.00;;;;;;;27.06;50.10;100110.70;107417;1258;69124;-86
2023/08/05 07:07:37;;;;;;;5.90;5.40;;;;;;;27.06;49.92;100116.41;107387;1257;73797;-86
2023/08/05 07:12:42;;;;;;;6.00;5.40;;;;;;;27.08;50.03;100112.02;107338;1258;69253;-86
2023/08/05 07:15:08;;;;;;;5.90;5.40;;;;;;;27.08;49.94;100113.19;107270;1259;69186;-86
2023/08/05 07:17:35;;;;;;;6.20;5.70;;;;;;;27.08;50.02;100102.40;107300;1257;69228;-86
2023/08/05 07:20:00;;;;;;;5.70;5.20;;;;;;;27.08;49.92;100103.27;107335;1261;69220;-86
2023/08/05 07:22:26;;;;;;;5.80;5.20;;;;;;;27.09;49.93;100106.88;107249;1257;69107;-86
2023/08/05 07:27:28;;;;;;;5.50;5.00;;;;;;;27.10;49.75;100104.44;107628;1257;69126;-86
2023/08/05 07:29:54;;;;;;;5.80;5.20;;;;;;;27.11;49.69;100096.84;107514;1257;69225;-86
2023/08/05 07:32:19;;;;;;;5.40;4.90;;;;;;;27.12;49.95;100090.41;107422;1258;69559;-86
2023/08/05 07:34:46;;;;;;;5.80;5.20;;;;;;;27.12;49.61;100092.30;107418;1258;69213;-86
2023/08/05 07:37:14;;;;;;;6.20;5.30;;;;;;;27.12;49.68;100090.18;107437;1257;70319;-86
2023/08/05 07:39:45;;;;;;;5.70;5.20;;;;;;;27.12;49.57;100086.36;107649;1260;69138;-86
2023/08/05 07:42:11;;;;;;;5.90;5.20;;;;;;;27.13;49.72;100080.75;108455;1256;73415;-86
2023/08/05 07:44:38;;;;;;;5.90;5.30;;;;;;;27.14;49.53;100076.17;107444;1260;69154;-86
2023/08/05 07:47:04;;;;;;;5.50;5.00;;;;;;;27.15;49.60;100065.68;107289;1260;69444;-85
2023/08/05 07:49:30;;;;;;;7.00;5.30;;;;;;;27.16;49.55;100071.21;107317;1256;69232;-85
2023/08/05 07:52:06;;;;;;;7.00;5.20;;;;;;;27.17;49.29;100072.13;107320;1257;69218;-91
2023/08/05 07:54:32;;;;;;;5.80;5.20;;;;;;;27.17;49.53;100069.59;107409;1258;74168;-86
2023/08/05 07:56:58;;;;;;;7.40;5.40;;;;;;;27.18;49.55;100071.66;107540;1257;69213;-86
2023/08/05 07:59:25;;;;;;;5.70;5.20;;;;;;;27.19;49.32;100070.58;107389;1256;66974;-85
2023/08/05 08:01:53;;;;;;;5.80;5.20;;;;;;;27.19;49.48;100074.45;107415;1258;69146;-86
2023/08/05 08:04:18;;;;;;;5.90;5.40;;;;;;;27.19;49.62;100068.19;107245;1257;69172;-86
2023/08/05 08:06:45;;;;;;;5.50;5.00;;;;;;;27.20;49.54;100061.02;107285;1258;69352;-85
2023/08/05 08:09:11;;;;;;;5.80;5.10;;;;;;;27.20;49.32;100056.22;107550;1257;70241;-86
2023/08/05 08:11:37;;;;;;;5.70;5.10;;;;;;;27.21;49.40;100043.34;107509;1258;69225;-86
2023/08/05 08:14:05;;;;;;;5.10;4.40;;;;;;;27.21;49.24;100039.92;107499;1260;69213;-86
2023/08/05 08:16:31;;;;;;;5.80;5.30;;;;;;;27.21;49.39;100038.88;107474;1258;69168;-86
2023/08/05 08:18:57;;;;;;;5.90;5.20;;;;;;;27.22;49.20;100040.95;107514;1260;69394;-91
2023/08/05 08:21:23;;;;;;;6.10;5.10;;;;;;;27.23;49.32;100038.15;107389;1260;69199;-86
2023/08/05 08:23:48;;;;;;;5.60;4.80;;;;;;;27.23;49.31;100036.48;107441;1257;69158;-86
2023/08/05 08:26:14;;;;;;;5.40;4.90;;;;;;;27.24;48.99;100028.88;107538;1257;69254;-85
2023/08/05 08:28:39;;;;;;;6.30;5.20;;;;;;;27.24;49.18;100025.65;107557;1261;69240;-85
2023/08/05 08:31:05;;;;;;;6.60;5.20;;;;;;;27.25;49.06;100026.83;107433;1257;69206;-85
2023/08/05 08:33:30;;;;;;;4.80;4.40;;;;;;;27.26;49.03;100027.66;107406;1257;69187;-85
2023/08/05 08:35:56;;;;;;;6.30;4.90;;;;;;;27.27;48.95;100025.48;107401;1256;69199;-85
2023/08/05 08:38:25;;;;;;;5.60;5.00;;;;;;;27.28;49.00;100031.38;107450;1263;69168;-86
2023/08/05 08:40:51;;;;;;;5.70;5.20;;;;;;;27.28;48.87;100032.70;107203;1257;69095;-85
2023/08/05 08:43:21;;;;;;;5.80;5.30;;;;;;;27.29;48.84;100034.59;107375;1263;70192;-85
2023/08/05 08:45:55;;;;;;;5.90;4.90;;;;;;;27.29;48.95;100031.38;107437;1257;66903;-91
2023/08/05 08:48:21;;;;;;;5.50;5.00;;;;;;;27.30;48.69;100021.19;107409;1258;69005;-85
2023/08/05 08:50:48;;;;;;;5.20;4.70;;;;;;;27.31;48.71;100018.58;107358;1263;69327;-85
2023/08/05 08:53:14;;;;;;;5.60;5.10;;;;;;;27.30;48.61;100007.73;107447;1261;69205;-86
2023/08/05 08:55:42;;;;;;;5.30;4.80;;;;;;;27.31;48.68;100008.91;107497;1258;69120;-86
2023/08/05 08:58:09;;;;;;;5.20;4.80;;;;;;;27.31;48.74;100011.53;107423;1258;69059;-85
2023/08/05 09:03:11;;;;;;;5.40;4.70;;;;;;;27.32;48.48;100001.18;107554;1260;74566;-85
2023/08/05 09:05:49;;;;;;;5.90;4.70;;;;;;;27.32;48.60;99993.01;107340;1257;69197;-85
2023/08/05 09:08:14;;;;;;;5.60;5.10;;;;;;;27.32;48.34;99990.47;107361;1263;69216;-86
2023/08/05 09:10:40;;;;;;;5.70;5.20;;;;;;;27.33;48.61;99990.95;107427;1257;69349;-86
2023/08/05 09:13:08;;;;;;;5.10;4.70;;;;;;;27.34;48.37;99990.27;107405;1257;69225;-86
2023/08/05 09:18:13;;;;;;;6.00;5.00;;;;;;;27.34;48.19;99985.73;107318;1257;67806;-86
2023/08/05 09:20:39;;;;;;;5.60;5.10;;;;;;;27.34;48.18;99987.66;107363;1256;69252;-85
2023/08/05 09:23:09;;;;;;;5.50;5.00;;;;;;;27.34;48.15;99989.78;107138;1257;70437;-85
2023/08/05 09:25:42;;;;;;;6.00;4.70;;;;;;;27.35;48.11;99984.44;107327;1257;67426;-86
2023/08/05 09:28:08;;;;;;;7.00;5.00;;;;;;;27.35;48.15;99984.73;107308;1257;73435;-86
2023/08/05 09:30:49;;;;;;;5.30;4.80;;;;;;;27.36;48.11;99973.42;107250;1257;69194;-91
2023/08/05 09:33:15;;;;;;;5.40;4.90;;;;;;;27.36;48.20;99969.33;107259;1260;69175;-85
2023/08/05 09:35:40;;;;;;;5.10;4.60;;;;;;;27.37;47.98;99975.11;107341;1257;69220;-85
2023/08/05 09:38:10;;;;;;;6.40;4.90;;;;;;;27.38;48.01;99972.77;107355;1260;69181;-85
2023/08/05 09:40:41;;;;;;;5.40;4.90;;;;;;;27.38;48.10;99972.24;107360;1257;73388;-85
2023/08/05 09:43:07;;;;;;;5.40;4.90;;;;;;;27.39;48.10;99976.41;107630;1257;69092;-85
2023/08/05 09:45:43;;;;;;;5.20;4.70;;;;;;;27.39;48.08;99966.37;107544;1257;69056;-91
2023/08/05 09:48:10;;;;;;;5.60;4.80;;;;;;;27.40;47.95;99962.58;107420;1257;69113;-85
2023/08/05 09:50:37;;;;;;;5.50;5.00;;;;;;;27.40;47.77;99956.77;107315;1257;69155;-86
2023/08/05 09:53:06;;;;;;;5.90;5.00;;;;;;;27.41;47.90;99956.55;107550;1257;74193;-86
2023/08/05 09:55:33;;;;;;;6.50;4.70;;;;;;;27.41;47.90;99952.92;107706;1257;69129;-86
2023/08/05 09:57:58;;;;;;;4.70;4.20;;;;;;;27.41;47.76;99946.52;107388;1262;69111;-86
2023/08/05 10:00:45;;;;;;;5.80;4.80;;;;;;;27.42;47.73;99941.17;107427;1263;69296;-91
2023/08/05 10:03:13;;;;;;;5.10;4.60;;;;;;;27.42;47.73;99938.34;107377;1257;69072;-85
2023/08/05 10:05:41;;;;;;;4.70;4.30;;;;;;;27.42;47.59;99937.08;107085;1263;74397;-86
2023/08/05 10:08:07;;;;;;;6.10;4.70;;;;;;;27.42;47.51;99933.14;107233;1261;69100;-85
2023/08/05 10:10:34;;;;;;;4.90;4.20;;;;;;;27.43;47.59;99944.99;107322;1257;69209;-86
2023/08/05 10:13:08;;;;;;;5.10;4.60;;;;;;;27.43;47.45;99938.48;107256;1263;69368;-85
2023/08/05 10:15:53;;;;;;;4.80;4.30;;;;;;;27.43;47.44;99933.11;107373;1257;69050;-86
2023/08/05 10:21:04;;;;;;;6.80;4.50;;;;;;;27.44;47.31;99924.46;107433;1260;69236;-86
2023/08/05 10:23:32;;;;;;;4.80;4.40;;;;;;;27.44;47.23;99923.09;107235;1257;69098;-86
2023/08/05 10:26:00;;;;;;;6.10;4.70;;;;;;;27.46;47.24;99918.37;107340;1257;69235;-85
2023/08/05 10:28:25;;;;;;;5.40;4.30;;;;;;;27.46;47.20;99923.36;107286;1257;69170;-85
2023/08/05 10:30:51;;;;;;;4.60;4.20;;;;;;;27.47;47.11;99920.71;107393;1260;69398;-86
2023/08/05 10:35:52;;;;;;;4.70;4.20;;;;;;;27.47;47.00;99915.79;107738;1257;69223;-85
2023/08/05 10:38:21;;;;;;;4.70;4.20;;;;;;;27.48;46.98;99913.60;107285;1257;69051;-85
2023/08/05 10:41:00;;;;;;;4.80;4.30;;;;;;;27.49;46.98;99905.42;107524;1257;69078;-85
2023/08/05 10:43:31;;;;;;;4.90;4.30;;;;;;;27.49;46.88;99903.03;107384;1258;73695;-85
2023/08/05 10:46:06;;;;;;;4.70;4.30;;;;;;;27.49;46.87;99898.94;107259;1258;69448;-85
2023/08/05 10:48:43;;;;;;;4.60;4.20;;;;;;;27.50;46.72;99898.86;107112;1259;69185;-85
2023/08/05 10:53:50;;;;;;;4.60;4.20;;;;;;;27.51;46.84;99898.06;107279;1261;69043;-85
2023/08/05 10:56:16;;;;;;;7.60;4.40;;;;;;;27.52;46.76;99894.50;107233;1261;69108;-85
2023/08/05 10:58:48;;;;;;;5.10;4.30;;;;;;;27.52;46.69;99887.27;107303;1258;69251;-85
2023/08/05 11:01:14;;;;;;;4.80;4.20;;;;;;;27.52;46.74;99879.41;107233;1261;67905;-85
2023/08/05 11:03:41;;;;;;;4.20;3.80;;;;;;;27.53;46.60;99877.41;107264;1262;69238;-85
2023/08/05 11:06:06;;;;;;;4.40;4.00;;;;;;;27.54;46.63;99871.90;107135;1261;69116;-85
2023/08/05 11:08:41;;;;;;;5.00;4.30;;;;;;;27.54;46.51;99863.39;107401;1257;74571;-85
2023/08/05 11:11:08;;;;;;;4.60;4.10;;;;;;;27.54;46.59;99865.73;107265;1257;69154;-85
2023/08/05 11:13:37;;;;;;;6.20;4.20;;;;;;;27.54;46.58;99872.30;107260;1257;69123;-85
2023/08/05 11:16:10;;;;;;;4.60;4.20;;;;;;;27.55;46.32;99862.92;107234;1257;69059;-85
2023/08/05 11:18:35;;;;;;;5.70;4.20;;;;;;;27.55;46.28;99850.77;107167;1261;69034;-85
2023/08/05 11:21:02;;;;;;;4.30;3.90;;;;;;;27.56;46.26;99838.59;107097;1257;69283;-85
2023/08/05 11:23:28;;;;;;;4.00;3.60;;;;;;;27.56;46.14;99839.46;107111;1257;69180;-85
2023/08/05 11:25:54;;;;;;;5.00;4.10;;;;;;;27.57;46.15;99839.91;107171;1257;70281;-85
2023/08/05 11:28:22;;;;;;;4.90;4.00;;;;;;;27.57;46.14;99835.14;107355;1257;69225;-85
2023/08/05 11:30:48;;;;;;;3.70;3.40;;;;;;;27.58;46.06;99826.08;107413;1258;69178;-85
2023/08/05 11:33:14;;;;;;;4.60;3.80;;;;;;;27.58;45.94;99822.40;107175;1257;69248;-85
2023/08/05 11:35:46;;;;;;;4.10;3.50;;;;;;;27.58;45.86;99825.44;107258;1257;69158;-86
2023/08/05 11:38:18;;;;;;;5.90;3.90;;;;;;;27.59;45.83;99826.45;107267;1261;69112;-86
2023/08/05 11:40:45;;;;;;;4.20;3.80;;;;;;;27.59;45.81;99818.01;107331;1263;69209;-86
2023/08/05 11:43:14;;;;;;;4.30;3.90;;;;;;;27.60;45.77;99813.07;107105;1261;69065;-86
2023/08/05 11:45:40;;;;;;;5.20;4.00;;;;;;;27.61;45.76;99804.77;107101;1260;73491;-86
2023/08/05 11:48:07;;;;;;;4.30;3.90;;;;;;;27.62;45.64;99802.42;107091;1260;69249;-88
2023/08/05 11:50:34;;;;;;;4.90;4.00;;;;;;;27.62;45.56;99804.73;106996;1261;69070;-86